createdAt,value
2023-08-02T00:06:48.478Z,66.78
2023-08-02T00:10:48.487Z,66.73
2023-08-02T00:14:48.359Z,66.75
2023-08-02T00:18:48.217Z,66.77
2023-08-02T00:22:48.476Z,66.78
2023-08-02T00:30:48.540Z,66.96
2023-08-02T00:34:54.545Z,67.43
2023-08-02T00:38:48.548Z,68.11
2023-08-02T00:42:48.301Z,68.67
2023-08-02T00:46:48.773Z,68.98
2023-08-02T00:58:48.437Z,69.70
2023-08-02T01:02:49.314Z,70.13
2023-08-02T01:06:53.959Z,70.49
2023-08-02T01:10:53.604Z,70.68
2023-08-02T01:18:48.386Z,71.26
2023-08-02T01:22:48.682Z,71.50
2023-08-02T01:26:48.531Z,71.82
2023-08-02T01:34:50.020Z,72.23
2023-08-02T01:38:48.508Z,72.26
2023-08-02T01:43:41.700Z,72.67
2023-08-02T01:50:48.894Z,72.96
2023-08-02T01:54:48.571Z,73.25
2023-08-02T01:58:48.642Z,73.59
2023-08-02T02:02:49.505Z,74.20
2023-08-02T02:06:49.910Z,74.69
2023-08-02T02:10:48.661Z,74.96
2023-08-02T02:14:48.884Z,74.97
2023-08-02T02:18:48.749Z,74.46
2023-08-02T02:22:48.692Z,75.36
2023-08-02T02:26:48.921Z,75.63
2023-08-02T02:30:49.045Z,76.06
2023-08-02T02:34:48.655Z,75.67
2023-08-02T02:38:49.142Z,77.38
2023-08-02T02:42:48.668Z,76.78
2023-08-02T02:46:48.870Z,77.50
2023-08-02T02:50:48.725Z,77.94
2023-08-02T02:54:49.210Z,77.72
2023-08-02T02:58:48.722Z,76.72
2023-08-02T03:02:49.152Z,78.07
2023-08-02T03:10:48.830Z,77.03
2023-08-02T03:22:48.902Z,76.99
2023-08-02T03:26:48.823Z,77.46
2023-08-02T03:30:49.053Z,78.13
2023-08-02T03:34:48.973Z,77.50
2023-08-02T03:42:49.060Z,78.74
2023-08-02T03:50:49.053Z,78.99
2023-08-02T03:54:48.849Z,79.72
2023-08-02T03:58:49.652Z,79.36
2023-08-02T04:02:49.114Z,79.41
2023-08-02T04:06:49.128Z,78.92
2023-08-02T04:10:48.859Z,79.48
2023-08-02T04:14:49.027Z,79.21
2023-08-02T04:18:48.911Z,79.54
2023-08-02T04:22:49.968Z,80.01
2023-08-02T04:26:48.964Z,79.84
2023-08-02T04:30:49.280Z,79.89
2023-08-02T04:34:48.982Z,80.10
2023-08-02T04:38:51.264Z,79.96
2023-08-02T04:42:50.694Z,79.94
2023-08-02T04:46:49.089Z,80.21
2023-08-02T04:50:49.343Z,80.08
2023-08-02T04:54:49.097Z,80.33
2023-08-02T04:58:49.121Z,80.58
2023-08-02T05:14:49.179Z,79.04
2023-08-02T05:18:49.229Z,79.71
2023-08-02T05:22:49.910Z,81.84
2023-08-02T05:30:49.271Z,81.11
2023-08-02T05:34:49.138Z,80.24
2023-08-02T05:38:49.234Z,81.87
2023-08-02T05:42:49.245Z,81.41
2023-08-02T05:46:49.475Z,81.82
2023-08-02T05:50:49.302Z,80.85
2023-08-02T05:54:49.243Z,81.45
2023-08-02T05:58:49.208Z,83.53
2023-08-02T06:02:49.633Z,81.82
2023-08-02T06:06:49.344Z,82.02
2023-08-02T06:10:49.300Z,82.81
2023-08-02T06:14:49.250Z,82.57
2023-08-02T06:18:49.561Z,81.50
2023-08-02T06:22:49.292Z,82.75
2023-08-02T06:26:49.409Z,81.67
2023-08-02T06:30:49.373Z,82.71
2023-08-02T06:34:50.023Z,83.37
2023-08-02T06:38:49.333Z,83.01
2023-08-02T06:42:49.570Z,83.37
2023-08-02T06:46:49.511Z,83.08
2023-08-02T06:50:49.904Z,82.65
2023-08-02T06:54:51.904Z,82.13
2023-08-02T06:58:49.675Z,82.61
2023-08-02T07:02:49.469Z,82.82
2023-08-02T07:06:49.563Z,83.16
2023-08-02T07:10:49.528Z,83.16
2023-08-02T07:14:49.583Z,81.80
2023-08-02T07:18:49.639Z,82.59
2023-08-02T07:22:49.762Z,80.86
2023-08-02T07:26:49.487Z,80.49
2023-08-02T07:30:49.596Z,80.38
2023-08-02T07:34:49.523Z,80.34
2023-08-02T07:38:49.735Z,80.05
2023-08-02T07:42:49.577Z,79.22
2023-08-02T07:46:50.530Z,78.87
2023-08-02T07:50:49.571Z,78.93
2023-08-02T07:54:56.267Z,78.89
2023-08-02T08:02:49.870Z,78.75
2023-08-02T08:06:49.715Z,78.70
2023-08-02T08:10:51.576Z,79.43
2023-08-02T08:14:49.627Z,78.18
2023-08-02T08:18:51.938Z,78.18
2023-08-02T08:22:49.591Z,77.20
2023-08-02T08:28:34.075Z,77.66
2023-08-02T08:34:49.657Z,76.85
2023-08-02T08:38:51.304Z,75.62
2023-08-02T08:42:50.783Z,75.23
2023-08-02T08:46:50.762Z,75.59
2023-08-02T08:50:51.055Z,75.85
2023-08-02T08:54:50.753Z,75.26
2023-08-02T08:58:51.981Z,74.24
2023-08-02T09:02:51.365Z,74.40
2023-08-02T09:06:49.843Z,72.84
2023-08-02T09:10:49.750Z,71.83
2023-08-02T09:15:01.013Z,71.55
2023-08-02T09:18:50.474Z,70.96
2023-08-02T09:23:14.977Z,71.36
2023-08-02T09:26:55.203Z,71.90
2023-08-02T09:30:54.691Z,71.16
2023-08-02T09:34:52.865Z,70.71
2023-08-02T09:38:58.746Z,71.71
2023-08-02T09:42:56.850Z,71.82
2023-08-02T09:46:50.881Z,71.89
2023-08-02T09:50:52.602Z,71.07
2023-08-02T09:54:50.073Z,70.65
2023-08-02T10:02:50.781Z,70.54
2023-08-02T10:06:53.109Z,70.02
2023-08-02T10:10:50.072Z,70.33
2023-08-02T10:15:01.999Z,70.33
2023-08-02T10:17:20.149Z,70.46
2023-08-02T10:18:50.769Z,69.37
2023-08-02T10:22:51.317Z,69.97
2023-08-02T10:27:15.118Z,67.81
2023-08-02T10:31:34.596Z,67.09
2023-08-02T10:37:52.841Z,66.67
2023-08-02T10:40:49.119Z,66.98
2023-08-02T10:45:11.302Z,67.26
2023-08-02T10:47:11.100Z,67.83
2023-08-02T10:50:48.454Z,67.83
2023-08-02T10:50:50.272Z,68.31
2023-08-02T10:58:52.086Z,67.47
2023-08-02T11:02:51.892Z,66.50
2023-08-02T11:06:50.514Z,66.21
2023-08-02T11:14:51.775Z,66.01
2023-08-02T11:19:00.456Z,66.52
2023-08-02T11:22:50.362Z,64.50
2023-08-02T11:30:50.990Z,65.30
2023-08-02T11:34:50.256Z,63.13
2023-08-02T11:38:50.451Z,63.85
2023-08-02T11:42:53.786Z,65.06
2023-08-02T11:46:53.247Z,63.56
2023-08-02T11:50:50.588Z,65.22
2023-08-02T11:54:50.713Z,64.14
2023-08-02T11:58:52.105Z,64.17
2023-08-02T12:02:50.331Z,63.80
2023-08-02T12:06:51.528Z,63.91
2023-08-02T12:10:51.331Z,62.36
2023-08-02T12:14:52.530Z,62.63
2023-08-02T12:18:56.534Z,63.42
2023-08-02T12:22:50.614Z,63.64
2023-08-02T12:26:50.527Z,63.70
2023-08-02T12:31:03.013Z,63.60
2023-08-02T12:38:50.553Z,64.09
2023-08-02T12:43:01.481Z,64.48
2023-08-02T12:46:50.661Z,64.24
2023-08-02T12:50:50.446Z,63.90
2023-08-02T12:54:50.675Z,64.06
2023-08-02T12:58:50.736Z,63.36
2023-08-02T13:02:50.694Z,63.93
2023-08-02T13:06:55.433Z,64.26
2023-08-02T13:10:51.781Z,64.14
2023-08-02T13:14:50.442Z,64.56
2023-08-02T13:18:50.734Z,65.28
2023-08-02T13:22:50.494Z,66.06
2023-08-02T13:26:50.574Z,68.00
2023-08-02T13:31:06.146Z,68.06
2023-08-02T13:34:50.664Z,68.06
2023-08-02T13:38:04.218Z,68.70
2023-08-02T13:38:50.579Z,68.99
2023-08-02T13:42:50.937Z,69.12
2023-08-02T13:46:50.536Z,70.66
2023-08-02T13:50:50.604Z,70.82
2023-08-02T13:54:50.826Z,73.21
2023-08-02T13:58:50.720Z,73.75
2023-08-02T14:02:50.659Z,74.13
2023-08-02T14:06:50.911Z,74.55
2023-08-02T14:10:50.916Z,74.28
2023-08-02T14:14:50.848Z,73.89
2023-08-02T14:18:50.641Z,74.85
2023-08-02T14:22:50.913Z,74.92
2023-08-02T14:26:50.677Z,74.66
2023-08-02T14:30:50.914Z,74.56
2023-08-02T14:34:50.705Z,74.49
2023-08-02T14:46:51.013Z,75.48
2023-08-02T14:50:51.741Z,75.65
2023-08-02T14:54:50.814Z,75.18
2023-08-02T14:58:50.760Z,74.98
2023-08-02T15:02:51.509Z,75.21
2023-08-02T15:06:50.848Z,75.08
2023-08-02T15:11:06.189Z,74.87
2023-08-02T15:15:55.138Z,75.82
2023-08-02T15:18:51.022Z,76.12
2023-08-02T15:22:50.851Z,75.76
2023-08-02T15:26:51.613Z,75.12
2023-08-02T15:30:51.093Z,75.79
2023-08-02T15:34:51.129Z,75.68
2023-08-02T15:38:51.849Z,75.36
2023-08-02T15:42:51.029Z,75.13
2023-08-02T15:46:50.935Z,76.09
2023-08-02T15:50:51.242Z,76.05
2023-08-02T15:54:51.015Z,76.75
2023-08-02T15:58:51.372Z,76.17
2023-08-02T16:02:50.967Z,75.91
2023-08-02T16:06:51.544Z,75.38
2023-08-02T16:14:51.120Z,75.08
2023-08-02T16:18:51.185Z,75.14
2023-08-02T16:22:51.068Z,75.39
2023-08-02T16:27:37.913Z,76.56
2023-08-02T16:31:45.927Z,75.62
2023-08-02T16:34:51.224Z,76.37
2023-08-02T16:38:51.217Z,76.70
2023-08-02T16:46:51.230Z,76.50
2023-08-02T16:50:51.139Z,76.51
2023-08-02T16:54:51.205Z,76.46
2023-08-02T16:58:51.268Z,76.60
2023-08-02T17:02:51.326Z,77.04
2023-08-02T17:10:51.410Z,77.12
2023-08-02T17:14:51.159Z,76.71
2023-08-02T17:18:51.726Z,76.29
2023-08-02T17:22:51.304Z,75.90
2023-08-02T17:26:51.260Z,76.20
2023-08-02T17:30:52.062Z,74.89
2023-08-02T17:34:51.437Z,73.64
2023-08-02T17:38:51.224Z,72.49
2023-08-02T17:42:51.975Z,72.47
2023-08-02T17:46:51.823Z,73.24
2023-08-02T17:50:53.363Z,73.63
2023-08-02T17:54:51.365Z,74.15
2023-08-02T17:58:51.429Z,74.93
2023-08-02T18:02:51.619Z,73.31
2023-08-02T18:06:52.402Z,71.65
2023-08-02T18:10:51.489Z,71.14
2023-08-02T18:14:51.457Z,70.03
2023-08-02T18:18:51.417Z,69.27
2023-08-02T18:22:51.531Z,69.70
2023-08-02T18:26:51.375Z,69.99
2023-08-02T18:30:55.377Z,70.24
2023-08-02T18:34:51.465Z,70.90
2023-08-02T18:38:51.586Z,71.89
2023-08-02T18:42:51.894Z,72.35
2023-08-02T18:46:51.583Z,72.99
2023-08-02T18:50:51.464Z,73.00
2023-08-02T18:54:51.605Z,73.54
2023-08-02T18:58:52.017Z,73.82
2023-08-02T19:02:53.479Z,74.28
2023-08-02T19:06:51.506Z,74.00
2023-08-02T19:10:51.754Z,74.63
2023-08-02T19:14:51.523Z,74.59
2023-08-02T19:18:51.876Z,74.83
2023-08-02T19:22:51.550Z,75.13
2023-08-02T19:26:51.673Z,75.63
2023-08-02T19:30:51.785Z,75.81
2023-08-02T19:34:51.896Z,75.89
2023-08-02T19:38:51.600Z,76.05
2023-08-02T19:42:51.678Z,75.88
2023-08-02T19:46:51.950Z,76.06
2023-08-02T19:50:54.092Z,75.93
2023-08-02T19:54:51.639Z,76.09
2023-08-02T19:58:56.324Z,76.15
2023-08-02T20:02:51.765Z,76.42
2023-08-02T20:06:52.063Z,76.22
2023-08-02T20:10:54.558Z,75.49
2023-08-02T20:16:16.801Z,76.05
2023-08-02T20:18:52.997Z,76.13
2023-08-02T20:22:52.499Z,76.10
2023-08-02T20:26:52.000Z,76.87
2023-08-02T20:42:57.044Z,77.39
2023-08-02T20:46:51.953Z,77.06
2023-08-02T20:50:52.330Z,76.82
2023-08-02T20:54:51.799Z,76.65
2023-08-02T20:58:52.193Z,76.46
2023-08-02T21:02:51.901Z,76.42
2023-08-02T21:07:09.518Z,76.31
2023-08-02T21:10:53.256Z,76.31
2023-08-02T21:14:51.993Z,76.36
2023-08-02T21:18:52.082Z,76.60
2023-08-02T21:22:52.016Z,76.64
2023-08-02T21:26:53.705Z,76.81
2023-08-02T21:30:54.268Z,76.92
2023-08-02T21:34:51.902Z,76.76
2023-08-02T21:38:52.467Z,76.71
2023-08-02T21:42:53.280Z,76.71
2023-08-02T21:46:52.257Z,76.52
2023-08-02T21:50:52.343Z,76.97
2023-08-02T21:54:52.105Z,76.73
2023-08-02T21:58:56.582Z,76.85
2023-08-02T22:02:52.898Z,77.01
2023-08-02T22:06:52.094Z,76.69
2023-08-02T22:10:52.022Z,76.74
2023-08-02T22:15:00.993Z,76.74
2023-08-02T22:18:52.046Z,77.22
2023-08-02T22:22:52.098Z,77.05
2023-08-02T22:26:52.104Z,77.29
2023-08-02T22:30:52.132Z,77.19
2023-08-02T22:34:52.154Z,77.36
2023-08-02T22:38:52.251Z,77.47
2023-08-02T22:42:52.301Z,78.00
2023-08-02T22:46:52.462Z,77.83
2023-08-02T22:50:55.914Z,78.04
2023-08-02T22:54:52.926Z,78.02
2023-08-02T22:58:57.538Z,77.65
2023-08-02T23:02:52.481Z,78.19
2023-08-02T23:06:52.619Z,78.04
2023-08-02T23:10:54.422Z,78.14
2023-08-02T23:14:57.794Z,78.00
2023-08-02T23:18:56.102Z,78.48
2023-08-02T23:26:52.638Z,78.71
2023-08-02T23:30:52.911Z,78.56
2023-08-02T23:34:52.321Z,78.63
2023-08-02T23:42:52.434Z,78.33
2023-08-02T23:46:52.297Z,78.15
2023-08-02T23:50:52.356Z,78.72
2023-08-02T23:54:52.275Z,78.79
2023-08-02T23:58:52.412Z,78.64
